Time;durP1;ratioP1;P1;durP2;ratioP2;P2;SDS_P1;SDS_P2;PMS_P1;PMS_P2;Temp;Humidity;BMP_temperature;BMP_pressure;BME280_temperature;BME280_humidity;BME280_pressure;Samples;Min_cycle;Max_cycle;Signal;HPM_P1;HPM_P2
2022/12/01 00:00:29;;;;;;;87.65;52.75;;;;;;;3.32;100.00;102785.59;5022732;28;20310;-47
2022/12/01 00:02:55;;;;;;;83.68;49.97;;;;;;;3.36;100.00;102781.28;5018130;28;20271;-48
2022/12/01 00:05:20;;;;;;;87.57;51.17;;;;;;;3.43;100.00;102776.19;5023165;28;20221;-46
2022/12/01 00:07:49;;;;;;;83.53;52.03;;;;;;;3.33;100.00;102781.22;5017685;28;20180;-45
2022/12/01 00:10:27;;;;;;;87.32;51.03;;;;;;;3.32;100.00;102788.25;5015429;28;20256;-47
2022/12/01 00:12:58;;;;;;;80.15;51.05;;;;;;;3.39;100.00;102789.28;5021721;28;20639;-46
2022/12/01 00:15:36;;;;;;;83.93;52.17;;;;;;;3.33;100.00;102775.94;5014863;28;20671;-46
2022/12/01 00:18:04;;;;;;;82.47;50.70;;;;;;;3.27;100.00;102777.56;5012743;28;20624;-46
2022/12/01 00:20:32;;;;;;;84.60;49.78;;;;;;;3.33;100.00;102781.22;5017762;28;20576;-45
2022/12/01 00:22:58;;;;;;;81.70;49.40;;;;;;;3.28;100.00;102773.19;5017852;28;20223;-48
2022/12/01 00:25:23;;;;;;;87.75;52.40;;;;;;;3.23;100.00;102775.69;5015239;28;20623;-45
2022/12/01 00:27:51;;;;;;;82.60;50.45;;;;;;;3.23;100.00;102781.00;5020915;28;20172;-46
2022/12/01 00:30:18;;;;;;;80.13;50.80;;;;;;;3.28;100.00;102783.78;5014468;28;20179;-44
2022/12/01 00:32:45;;;;;;;87.95;52.85;;;;;;;3.25;100.00;102787.22;5016202;28;20183;-45
2022/12/01 00:35:11;;;;;;;75.50;48.33;;;;;;;3.34;100.00;102783.91;5013331;28;20177;-47
2022/12/01 00:37:37;;;;;;;86.30;50.75;;;;;;;3.33;100.00;102778.59;5015555;28;20239;-46
2022/12/01 00:40:05;;;;;;;83.20;50.20;;;;;;;3.34;100.00;102777.72;5015344;28;20235;-45
2022/12/01 00:42:30;;;;;;;78.18;46.65;;;;;;;3.24;100.00;102769.56;5012748;28;20196;-46
2022/12/01 00:44:56;;;;;;;76.72;47.70;;;;;;;3.28;100.00;102775.84;5019121;28;20233;-45
2022/12/01 00:47:22;;;;;;;74.32;46.40;;;;;;;3.30;100.00;102785.59;5011920;28;20678;-45
2022/12/01 00:49:47;;;;;;;72.65;46.28;;;;;;;3.27;100.00;102780.22;5012841;28;20287;-44
2022/12/01 00:52:15;;;;;;;74.97;45.95;;;;;;;3.27;100.00;102781.97;5018730;28;20229;-45
2022/12/01 00:54:40;;;;;;;72.70;45.25;;;;;;;3.32;100.00;102780.31;5015657;28;20269;-46
2022/12/01 00:57:06;;;;;;;71.32;45.30;;;;;;;3.30;100.00;102780.31;5018542;28;20231;-46
2022/12/01 00:59:31;;;;;;;67.95;45.15;;;;;;;3.27;100.00;102784.63;5021190;28;20576;-45
2022/12/01 01:01:57;;;;;;;73.03;45.47;;;;;;;3.26;100.00;102781.09;5013901;28;20201;-44
2022/12/01 01:04:23;;;;;;;71.60;45.03;;;;;;;3.23;100.00;102785.41;5014001;28;20180;-47
2022/12/01 01:06:48;;;;;;;76.50;46.28;;;;;;;3.24;100.00;102781.91;5015174;28;20177;-46
2022/12/01 01:09:15;;;;;;;71.00;44.97;;;;;;;3.28;100.00;102787.31;5016358;28;20231;-41
2022/12/01 01:11:40;;;;;;;70.28;44.42;;;;;;;3.28;100.00;102789.97;5012461;28;20238;-40
2022/12/01 01:14:07;;;;;;;76.03;46.03;;;;;;;3.24;100.00;102787.22;5019966;28;20609;-45
2022/12/01 01:16:32;;;;;;;72.35;44.47;;;;;;;3.25;100.00;102789.88;5014906;28;20208;-46
2022/12/01 01:18:58;;;;;;;74.60;46.42;;;;;;;3.25;100.00;102778.38;5019948;28;20649;-45
2022/12/01 01:21:25;;;;;;;68.95;43.17;;;;;;;3.24;100.00;102787.22;5012925;28;20227;-46
2022/12/01 01:23:52;;;;;;;73.75;44.25;;;;;;;3.28;100.00;102786.44;5014354;28;20190;-46
2022/12/01 01:26:26;;;;;;;73.43;44.67;;;;;;;3.27;100.00;102800.50;5018303;28;20639;-45
2022/12/01 01:28:54;;;;;;;71.03;43.70;;;;;;;3.27;100.00;102800.50;5010021;28;20215;-44
2022/12/01 01:31:23;;;;;;;71.35;43.22;;;;;;;3.28;100.00;102800.56;5015902;28;20180;-45
2022/12/01 01:33:48;;;;;;;67.88;43.08;;;;;;;3.30;100.00;102797.91;5013606;28;20173;-45
2022/12/01 01:36:15;;;;;;;73.03;44.25;;;;;;;3.35;100.00;102804.25;5013401;28;20502;-44
2022/12/01 01:38:42;;;;;;;74.82;44.65;;;;;;;3.33;100.00;102795.38;5022417;28;20191;-45
2022/12/01 01:41:08;;;;;;;73.15;43.55;;;;;;;3.29;100.00;102799.69;5015532;28;20581;-45
2022/12/01 01:44:03;;;;;;;71.63;42.80;;;;;;;3.28;100.00;102792.63;5018051;28;20180;-45
2022/12/01 01:46:33;;;;;;;72.95;42.38;;;;;;;3.30;100.00;102792.63;5011929;28;20565;-46
2022/12/01 01:49:02;;;;;;;68.72;41.55;;;;;;;3.26;100.00;102799.63;5015463;28;20288;-46
2022/12/01 01:51:37;;;;;;;67.32;42.58;;;;;;;3.27;100.00;102789.91;5020825;28;20184;-46
2022/12/01 01:54:14;;;;;;;73.18;42.65;;;;;;;3.26;100.00;102799.63;5016545;28;20181;-46
2022/12/01 01:56:42;;;;;;;66.78;41.58;;;;;;;3.29;100.00;102807.63;5013984;28;20204;-47
2022/12/01 01:59:12;;;;;;;66.78;41.50;;;;;;;3.26;100.00;102796.97;5012773;28;20258;-48
2022/12/01 02:01:37;;;;;;;68.38;41.40;;;;;;;3.26;100.00;102796.97;5011428;28;20213;-48
2022/12/01 02:04:03;;;;;;;66.15;40.13;;;;;;;3.32;100.00;102808.56;5014335;28;20640;-47
2022/12/01 02:06:29;;;;;;;65.78;39.25;;;;;;;3.30;100.00;102806.78;5014681;28;20249;-48
2022/12/01 02:08:54;;;;;;;67.53;41.90;;;;;;;3.30;100.00;102808.53;5014636;28;20282;-47
2022/12/01 02:11:48;;;;;;;67.03;41.33;;;;;;;3.25;100.00;102797.81;5013560;28;20524;-45
2022/12/01 02:14:20;;;;;;;68.95;40.88;;;;;;;3.24;100.00;102803.09;5016804;28;20553;-48
2022/12/01 02:16:45;;;;;;;65.82;39.35;;;;;;;3.33;100.00;102813.91;5018198;28;20643;-44
2022/12/01 02:19:48;;;;;;;65.90;39.90;;;;;;;3.29;100.00;102802.34;5020512;28;20267;-46
2022/12/01 02:22:20;;;;;;;67.38;39.67;;;;;;;3.29;100.00;102804.09;5012993;28;20259;-47
2022/12/01 02:25:17;;;;;;;60.97;39.35;;;;;;;3.24;100.00;102808.41;5009601;28;20256;-47
2022/12/01 02:28:13;;;;;;;65.13;38.65;;;;;;;3.27;100.00;102808.47;5013384;28;20234;-47
2022/12/01 02:31:08;;;;;;;58.58;37.97;;;;;;;3.25;100.00;102799.56;5026714;28;20247;-48
2022/12/01 02:33:39;;;;;;;63.85;37.88;;;;;;;3.32;100.00;102797.97;5010904;28;20286;-46
2022/12/01 02:36:28;;;;;;;61.78;38.75;;;;;;;3.32;100.00;102811.22;5014723;28;20189;-47
2022/12/01 02:39:05;;;;;;;56.92;35.92;;;;;;;3.33;100.00;102810.38;5008095;28;20208;-47
2022/12/01 02:41:38;;;;;;;59.03;35.85;;;;;;;3.35;100.00;102800.72;5016144;28;20258;-46
2022/12/01 02:44:18;;;;;;;59.85;36.15;;;;;;;3.33;100.00;102800.66;5017071;28;20191;-47
2022/12/01 02:46:56;;;;;;;56.50;36.65;;;;;;;3.35;100.00;102798.06;5013067;28;20206;-47
2022/12/01 02:49:39;;;;;;;55.72;36.03;;;;;;;3.33;100.00;102797.13;5012337;28;20224;-49
2022/12/01 02:52:05;;;;;;;57.90;35.65;;;;;;;3.36;100.00;102800.72;5014021;28;20188;-47
2022/12/01 02:54:32;;;;;;;59.92;34.65;;;;;;;3.36;100.00;102794.53;5011265;28;20204;-47
2022/12/01 02:56:58;;;;;;;62.00;35.53;;;;;;;3.33;100.00;102792.72;5010496;28;20691;-46
2022/12/01 02:59:24;;;;;;;55.67;35.33;;;;;;;3.32;100.00;102798.84;5014671;28;20204;-47
2022/12/01 03:02:11;;;;;;;58.95;34.70;;;;;;;3.38;100.00;102800.78;5009804;28;20205;-47
2022/12/01 03:04:58;;;;;;;60.80;36.83;;;;;;;3.35;100.00;102796.28;5015037;28;20184;-45
2022/12/01 03:07:51;;;;;;;51.30;34.13;;;;;;;3.37;100.00;102789.28;5008659;28;20185;-46
2022/12/01 03:10:44;;;;;;;54.65;35.25;;;;;;;3.42;100.00;102795.56;5016153;28;20604;-47
2022/12/01 03:13:28;;;;;;;56.03;35.85;;;;;;;3.41;100.00;102792.88;5017552;28;20177;-47
2022/12/01 03:15:53;;;;;;;61.47;36.08;;;;;;;3.33;100.00;102786.53;5010748;28;20654;-48
2022/12/01 03:18:41;;;;;;;57.45;36.10;;;;;;;3.28;100.00;102789.06;5012224;28;20196;-46
2022/12/01 03:21:16;;;;;;;55.92;36.20;;;;;;;3.33;100.00;102792.72;5013979;28;20266;-45
2022/12/01 03:23:46;;;;;;;60.63;36.10;;;;;;;3.32;100.00;102788.25;5010354;28;20560;-45
2022/12/01 03:26:18;;;;;;;55.00;34.20;;;;;;;3.37;100.00;102791.00;5011107;28;20184;-47
2022/12/01 03:28:53;;;;;;;57.03;34.67;;;;;;;3.37;100.00;102781.34;5010375;28;20229;-48
2022/12/01 03:31:25;;;;;;;55.08;33.95;;;;;;;3.34;100.00;102790.97;5014040;28;20179;-48
2022/12/01 03:33:59;;;;;;;49.72;31.38;;;;;;;3.33;100.00;102775.94;5016182;28;20734;-47
2022/12/01 03:36:34;;;;;;;52.05;32.28;;;;;;;3.34;100.00;102791.84;5011479;28;20564;-46
2022/12/01 03:39:05;;;;;;;44.50;28.58;;;;;;;3.40;100.00;102777.84;5016730;28;20279;-48
2022/12/01 03:41:39;;;;;;;40.60;28.30;;;;;;;3.42;100.00;102778.78;5016546;28;20196;-46
2022/12/01 03:44:10;;;;;;;41.97;27.10;;;;;;;3.36;100.00;102776.88;5015155;28;20196;-46
2022/12/01 03:46:54;;;;;;;43.53;27.15;;;;;;;3.39;100.00;102781.34;5016209;28;20686;-48
2022/12/01 03:49:21;;;;;;;36.53;25.35;;;;;;;3.42;100.00;102784.97;5015271;28;20211;-48
2022/12/01 03:52:09;;;;;;;41.35;27.08;;;;;;;3.42;100.00;102782.31;5017594;28;20245;-46
2022/12/01 03:54:35;;;;;;;37.63;25.80;;;;;;;3.42;100.00;102789.38;5014651;28;20185;-47
2022/12/01 03:57:08;;;;;;;36.67;24.33;;;;;;;3.45;100.00;102782.38;5009383;28;20659;-47
2022/12/01 03:59:36;;;;;;;39.10;26.73;;;;;;;3.43;100.00;102775.25;5018891;28;20247;-47
2022/12/01 04:02:02;;;;;;;39.67;27.20;;;;;;;3.49;100.00;102786.00;5011133;28;20180;-59
2022/12/01 04:04:27;;;;;;;41.75;27.83;;;;;;;3.48;100.00;102787.75;5019029;28;20199;-47
2022/12/01 04:06:53;;;;;;;48.22;29.85;;;;;;;3.48;100.00;102784.22;5013650;28;20189;-47
2022/12/01 04:09:18;;;;;;;44.85;29.45;;;;;;;3.50;100.00;102786.06;5010482;28;20837;-50
2022/12/01 04:14:29;;;;;;;44.58;28.92;;;;;;;3.57;100.00;102795.03;5010081;28;20223;-46
2022/12/01 04:16:54;;;;;;;46.08;29.80;;;;;;;3.54;100.00;102797.59;5014756;28;20208;-48
2022/12/01 04:19:20;;;;;;;48.83;31.65;;;;;;;3.54;100.00;102797.59;5014939;28;20637;-49
2022/12/01 04:21:45;;;;;;;50.55;32.00;;;;;;;3.47;100.00;102796.56;5009104;28;20266;-47
2022/12/01 04:24:12;;;;;;;50.38;32.03;;;;;;;3.50;100.00;102787.81;5012538;28;20189;-44
2022/12/01 04:26:38;;;;;;;57.00;33.08;;;;;;;3.48;100.00;102801.03;5011794;28;20196;-47
2022/12/01 04:29:08;;;;;;;57.47;34.38;;;;;;;3.46;100.00;102801.84;5009415;28;20209;-44
2022/12/01 04:31:34;;;;;;;53.80;34.25;;;;;;;3.49;100.00;102801.91;5009910;28;20184;-48
2022/12/01 04:34:00;;;;;;;54.22;34.95;;;;;;;3.45;100.00;102800.03;5009853;28;20173;-43
2022/12/01 04:36:29;;;;;;;58.42;36.03;;;;;;;3.47;100.00;102793.91;5021861;28;20180;-43
2022/12/01 04:38:55;;;;;;;60.55;38.58;;;;;;;3.47;100.00;102795.66;5028782;28;20233;-45
2022/12/01 04:41:20;;;;;;;57.85;36.92;;;;;;;3.47;100.00;102799.22;5028334;28;20345;-47
2022/12/01 04:43:46;;;;;;;65.45;38.22;;;;;;;3.48;100.00;102805.44;5033353;28;20509;-43
2022/12/01 04:46:11;;;;;;;62.85;37.90;;;;;;;3.51;100.00;102803.72;5033034;28;20200;-42
2022/12/01 04:48:38;;;;;;;67.32;39.47;;;;;;;3.51;100.00;102805.47;5032372;28;20210;-46
2022/12/01 04:51:06;;;;;;;71.82;40.15;;;;;;;3.51;100.00;102808.13;5033141;28;20541;-46
2022/12/01 04:53:31;;;;;;;64.07;39.80;;;;;;;3.49;100.00;102809.84;5032859;28;20662;-45
2022/12/01 04:56:00;;;;;;;66.57;40.75;;;;;;;3.50;100.00;102811.66;5032930;28;20378;-44
2022/12/01 04:58:28;;;;;;;65.30;40.83;;;;;;;3.52;100.00;102809.94;5032840;28;20576;-43
2022/12/01 05:00:53;;;;;;;65.57;39.53;;;;;;;3.47;100.00;102814.22;5032916;28;20555;-48
2022/12/01 05:03:19;;;;;;;65.80;40.63;;;;;;;3.58;100.00;102806.53;5031738;28;20184;-44
2022/12/01 05:05:44;;;;;;;73.60;41.45;;;;;;;3.53;100.00;102806.41;5032694;28;20175;-42
2022/12/01 05:08:10;;;;;;;71.88;41.95;;;;;;;3.48;100.00;102816.03;5032742;28;20283;-43
2022/12/01 05:10:36;;;;;;;66.63;41.80;;;;;;;3.50;100.00;102816.97;5032697;28;20639;-45
2022/12/01 05:13:05;;;;;;;68.07;39.83;;;;;;;3.53;100.00;102817.03;5032744;28;20233;-45
2022/12/01 05:15:31;;;;;;;66.95;39.63;;;;;;;3.52;100.00;102815.25;5032619;28;20660;-44
2022/12/01 05:17:56;;;;;;;71.03;43.00;;;;;;;3.49;100.00;102818.69;5032254;28;20290;-42
2022/12/01 05:23:08;;;;;;;73.75;41.90;;;;;;;3.51;100.00;102818.75;5016482;28;20578;-44
2022/12/01 05:25:36;;;;;;;71.68;42.60;;;;;;;3.51;100.00;102822.28;5011351;28;20173;-46
2022/12/01 05:28:02;;;;;;;71.40;42.83;;;;;;;3.48;100.00;102827.53;5011419;28;20193;-43
2022/12/01 05:30:28;;;;;;;70.55;42.63;;;;;;;3.50;100.00;102830.22;5011035;28;20185;-43
2022/12/01 05:32:54;;;;;;;69.22;42.45;;;;;;;3.49;100.00;102831.94;5012705;28;20211;-44
2022/12/01 05:35:19;;;;;;;72.03;40.35;;;;;;;3.56;100.00;102830.31;5012528;28;20189;-45
2022/12/01 05:37:45;;;;;;;70.10;40.45;;;;;;;3.58;100.00;102843.63;5031501;28;20195;-44
2022/12/01 05:40:10;;;;;;;70.13;39.45;;;;;;;3.58;100.00;102833.03;5031675;28;20242;-47
2022/12/01 05:42:36;;;;;;;59.85;36.78;;;;;;;3.59;100.00;102832.19;5032262;28;20172;-43
2022/12/01 05:45:02;;;;;;;60.80;35.70;;;;;;;3.62;100.00;102833.13;5031028;28;20180;-44
2022/12/01 05:47:27;;;;;;;63.13;37.45;;;;;;;3.62;100.00;102838.44;5032035;28;20296;-45
2022/12/01 05:49:53;;;;;;;69.65;40.75;;;;;;;3.60;100.00;102840.16;5032135;28;20192;-48
2022/12/01 05:52:18;;;;;;;81.88;45.88;;;;;;;3.50;100.00;102843.47;5032187;28;20176;-44
2022/12/01 05:54:44;;;;;;;76.00;44.70;;;;;;;3.43;100.00;102842.44;5020571;28;20181;-44
2022/12/01 05:57:09;;;;;;;72.47;42.60;;;;;;;3.47;100.00;102846.03;5012134;28;20550;-47
2022/12/01 05:59:35;;;;;;;70.72;42.42;;;;;;;3.51;100.00;102840.81;5012048;28;20271;-42
2022/12/01 06:02:00;;;;;;;67.55;40.45;;;;;;;3.56;100.00;102840.94;5012110;28;20201;-41
2022/12/01 06:04:26;;;;;;;61.38;36.55;;;;;;;3.59;100.00;102848.09;5012239;28;20713;-45
2022/12/01 06:06:51;;;;;;;58.50;36.08;;;;;;;3.63;100.00;102848.19;5012088;28;20663;-44
2022/12/01 06:09:17;;;;;;;55.75;33.47;;;;;;;3.65;100.00;102841.16;5019045;28;20211;-44
2022/12/01 06:11:42;;;;;;;71.43;41.35;;;;;;;3.66;100.00;102847.34;5031631;28;20183;-44
2022/12/01 06:14:08;;;;;;;72.53;40.70;;;;;;;3.61;100.00;102846.38;5031787;28;20196;-46
2022/12/01 06:16:34;;;;;;;70.80;42.83;;;;;;;3.59;100.00;102851.63;5031743;28;20670;-46
2022/12/01 06:18:59;;;;;;;72.78;43.90;;;;;;;3.55;100.00;102855.06;5029957;28;20239;-45
2022/12/01 06:21:25;;;;;;;74.75;43.28;;;;;;;3.52;100.00;102847.03;5018569;28;20566;-44
2022/12/01 06:23:50;;;;;;;70.03;41.40;;;;;;;3.48;100.00;102855.78;5014454;28;20189;-47
2022/12/01 06:26:16;;;;;;;71.70;41.58;;;;;;;3.46;100.00;102852.19;5015170;28;20185;-41
2022/12/01 06:28:41;;;;;;;68.20;41.38;;;;;;;3.50;100.00;102854.06;5012813;28;20292;-44
2022/12/01 06:31:07;;;;;;;63.25;39.63;;;;;;;3.56;100.00;102862.13;5016513;28;20196;-45
2022/12/01 06:33:33;;;;;;;67.90;37.83;;;;;;;3.60;100.00;102860.47;5012907;28;20573;-49
2022/12/01 06:36:00;;;;;;;60.03;35.97;;;;;;;3.63;100.00;102860.53;5013708;28;20276;-43
2022/12/01 06:38:29;;;;;;;59.40;36.00;;;;;;;3.63;100.00;102866.75;5015979;28;20258;-44
2022/12/01 06:40:54;;;;;;;75.13;42.22;;;;;;;3.48;100.00;102875.22;5014747;28;20209;-44
2022/12/01 06:43:20;;;;;;;74.57;42.90;;;;;;;3.49;100.00;102874.34;5011393;28;20196;-44
2022/12/01 06:45:45;;;;;;;69.55;40.97;;;;;;;3.49;100.00;102870.81;5025246;28;20239;-46
2022/12/01 06:48:11;;;;;;;69.15;39.90;;;;;;;3.50;100.00;102872.63;5012160;28;20295;-43
2022/12/01 06:50:37;;;;;;;76.93;45.53;;;;;;;3.48;100.00;102875.22;5015177;28;20234;-44
2022/12/01 06:53:03;;;;;;;75.70;44.33;;;;;;;3.52;100.00;102868.25;5021946;28;20270;-45
2022/12/01 06:55:28;;;;;;;74.78;44.45;;;;;;;3.48;100.00;102866.38;5012691;28;20188;-44
2022/12/01 06:57:54;;;;;;;72.07;44.08;;;;;;;3.46;100.00;102879.59;5021972;28;20184;-45
2022/12/01 07:00:20;;;;;;;75.65;43.75;;;;;;;3.42;100.00;102877.72;5015402;28;20212;-45
2022/12/01 07:02:46;;;;;;;76.85;43.55;;;;;;;3.40;100.00;102879.44;5011492;28;20623;-44
2022/12/01 07:05:12;;;;;;;78.38;45.25;;;;;;;3.43;100.00;102886.56;5020814;28;20560;-42
2022/12/01 07:07:38;;;;;;;85.65;46.55;;;;;;;3.38;100.00;102883.78;5013958;28;20242;-48
2022/12/01 07:10:05;;;;;;;78.65;46.42;;;;;;;3.40;100.00;102883.84;5007267;28;20184;-44
2022/12/01 07:12:31;;;;;;;80.20;47.05;;;;;;;3.38;100.00;102874.97;5016837;28;20223;-46
2022/12/01 07:14:57;;;;;;;80.00;45.25;;;;;;;3.42;100.00;102884.78;5012414;28;20259;-47
2022/12/01 07:17:22;;;;;;;81.72;46.75;;;;;;;3.44;100.00;102885.72;5023898;28;20655;-48
2022/12/01 07:19:48;;;;;;;77.13;45.75;;;;;;;3.44;100.00;102883.06;5014815;28;20215;-43
2022/12/01 07:22:14;;;;;;;91.18;50.50;;;;;;;3.34;100.00;102881.91;5012227;28;20246;-43
2022/12/01 07:24:40;;;;;;;83.90;47.78;;;;;;;3.37;100.00;102889.03;5012128;28;20191;-43
2022/12/01 07:27:06;;;;;;;82.90;46.63;;;;;;;3.41;100.00;102880.31;5009802;28;20563;-44
2022/12/01 07:29:31;;;;;;;84.85;49.42;;;;;;;3.35;100.00;102885.50;5012897;28;20207;-45
2022/12/01 07:31:56;;;;;;;82.93;46.88;;;;;;;3.36;100.00;102889.91;5010471;28;20213;-45
2022/12/01 07:34:22;;;;;;;88.80;50.00;;;;;;;3.31;100.00;102889.81;5019892;28;20184;-43
2022/12/01 07:36:47;;;;;;;90.53;50.90;;;;;;;3.32;100.00;102891.59;5009813;28;20188;-45
2022/12/01 07:39:13;;;;;;;82.05;49.05;;;;;;;3.35;100.00;102894.31;5019520;28;20221;-42
2022/12/01 07:41:39;;;;;;;84.88;49.33;;;;;;;3.33;100.00;102897.81;5013146;28;20260;-45
2022/12/01 07:44:04;;;;;;;91.90;51.40;;;;;;;3.33;100.00;102897.81;5008655;28;20269;-49
2022/12/01 07:46:30;;;;;;;90.80;50.17;;;;;;;3.25;100.00;102898.47;5015019;28;20192;-45
2022/12/01 07:48:56;;;;;;;89.72;50.63;;;;;;;3.33;100.00;102906.63;5010634;28;20235;-44
2022/12/01 07:51:23;;;;;;;91.05;50.22;;;;;;;3.32;100.00;102894.22;5013859;28;20196;-46
2022/12/01 07:53:50;;;;;;;89.80;49.42;;;;;;;3.36;100.00;102906.69;5008948;28;20311;-47
2022/12/01 07:56:17;;;;;;;81.28;47.53;;;;;;;3.35;100.00;102902.28;5010349;28;20195;-48
2022/12/01 07:58:43;;;;;;;87.18;50.00;;;;;;;3.37;100.00;102904.94;5020848;28;20640;-46
2022/12/01 08:01:20;;;;;;;89.72;50.10;;;;;;;3.37;100.00;102904.94;5009418;28;20270;-47
2022/12/01 08:03:53;;;;;;;83.35;47.92;;;;;;;3.43;100.00;102900.72;5010168;28;20185;-44
2022/12/01 08:06:20;;;;;;;81.10;46.15;;;;;;;3.44;100.00;102896.31;5010731;28;20302;-47
2022/12/01 08:08:46;;;;;;;84.35;48.72;;;;;;;3.50;100.00;102899.13;5014869;28;20200;-45
2022/12/01 08:11:18;;;;;;;90.97;49.53;;;;;;;3.49;100.00;102898.19;5017249;28;20194;-48
2022/12/01 08:13:44;;;;;;;81.57;48.08;;;;;;;3.51;100.00;102903.53;5016033;28;20176;-48
2022/12/01 08:16:15;;;;;;;88.20;49.75;;;;;;;3.42;100.00;102901.56;5013113;28;20267;-46
2022/12/01 08:18:42;;;;;;;84.43;48.05;;;;;;;3.50;100.00;102912.38;5017913;28;20200;-46
2022/12/01 08:21:11;;;;;;;89.47;51.20;;;;;;;3.49;100.00;102919.41;5014534;28;20261;-48
2022/12/01 08:23:37;;;;;;;80.97;48.47;;;;;;;3.51;100.00;102906.19;5017651;28;20184;-47
2022/12/01 08:26:05;;;;;;;88.07;51.25;;;;;;;3.48;100.00;102912.31;5021217;28;20698;-46
2022/12/01 08:28:31;;;;;;;86.15;49.00;;;;;;;3.49;100.00;102911.44;5010201;28;20205;-46
2022/12/01 08:30:56;;;;;;;87.63;49.38;;;;;;;3.40;100.00;102905.03;5012563;28;20534;-48
2022/12/01 08:33:23;;;;;;;87.30;48.17;;;;;;;3.42;100.00;102911.28;5012210;28;20655;-45
2022/12/01 08:35:48;;;;;;;86.85;50.17;;;;;;;3.39;100.00;102909.44;5014699;28;20268;-47
2022/12/01 08:38:14;;;;;;;81.63;47.05;;;;;;;3.43;100.00;102916.63;5012532;28;20242;-44
2022/12/01 08:40:40;;;;;;;85.93;48.65;;;;;;;3.50;100.00;102915.91;5014684;28;20208;-46
2022/12/01 08:43:06;;;;;;;87.07;47.47;;;;;;;3.51;100.00;102916.78;5015431;28;20576;-46
2022/12/01 08:45:32;;;;;;;87.18;47.92;;;;;;;3.45;100.00;102908.69;5012401;28;20189;-46
2022/12/01 08:47:58;;;;;;;84.63;48.35;;;;;;;3.50;100.00;102915.91;5012458;28;20211;-48
2022/12/01 08:50:27;;;;;;;82.20;47.25;;;;;;;3.47;100.00;102923.75;5021044;28;20679;-46
2022/12/01 08:52:53;;;;;;;82.25;47.65;;;;;;;3.43;100.00;102913.06;5019398;28;20263;-46
2022/12/01 08:55:20;;;;;;;86.18;48.40;;;;;;;3.48;100.00;102924.69;5011737;28;20613;-45
2022/12/01 08:57:46;;;;;;;82.25;46.70;;;;;;;3.55;100.00;102926.63;5020154;28;20199;-48
2022/12/01 09:00:12;;;;;;;84.72;47.88;;;;;;;3.43;100.00;102931.59;5014505;28;20306;-44
2022/12/01 09:02:38;;;;;;;86.63;47.20;;;;;;;3.38;100.00;102928.84;5014694;28;20257;-47
2022/12/01 09:05:04;;;;;;;82.88;47.72;;;;;;;3.42;100.00;102933.34;5016569;28;20184;-46
2022/12/01 09:07:30;;;;;;;79.22;46.47;;;;;;;3.52;100.00;102923.91;5018235;28;20312;-47
2022/12/01 09:09:55;;;;;;;88.95;49.22;;;;;;;3.50;100.00;102928.28;5016899;28;20642;-45
2022/12/01 09:12:21;;;;;;;81.82;47.33;;;;;;;3.49;100.00;102929.09;5018489;28;20183;-45
2022/12/01 09:14:48;;;;;;;80.85;47.58;;;;;;;3.47;100.00;102939.66;5020696;28;20188;-48
2022/12/01 09:17:15;;;;;;;84.50;48.08;;;;;;;3.57;100.00;102940.81;5019178;28;20200;-46
2022/12/01 09:19:41;;;;;;;91.53;48.85;;;;;;;3.54;100.00;102937.16;5028759;28;21945;-47
2022/12/01 09:22:08;;;;;;;88.93;50.15;;;;;;;3.54;100.00;102930.09;5012717;28;20212;-47
2022/12/01 09:24:34;;;;;;;84.95;47.60;;;;;;;3.59;100.00;102932.91;5012279;28;20193;-47
2022/12/01 09:26:59;;;;;;;86.50;47.78;;;;;;;3.55;100.00;102929.25;5012702;28;20631;-46
2022/12/01 09:29:25;;;;;;;85.00;48.85;;;;;;;3.48;100.00;102929.97;5013988;28;20334;-46
2022/12/01 09:31:55;;;;;;;85.65;47.88;;;;;;;3.46;100.00;102921.97;5011899;28;20184;-45
2022/12/01 09:34:21;;;;;;;84.57;47.90;;;;;;;3.43;100.00;102921.91;5011772;28;20227;-46
2022/12/01 09:36:47;;;;;;;87.25;48.65;;;;;;;3.44;100.00;102917.50;5017491;28;20663;-47
2022/12/01 09:39:16;;;;;;;88.10;48.72;;;;;;;3.48;100.00;102922.03;5020496;28;20204;-43
2022/12/01 09:41:58;;;;;;;83.88;47.35;;;;;;;3.45;100.00;102924.59;5016861;28;20215;-47
2022/12/01 09:44:36;;;;;;;81.82;46.72;;;;;;;3.47;100.00;102925.53;5011185;28;20258;-48
2022/12/01 09:47:10;;;;;;;86.32;46.92;;;;;;;3.39;100.00;102929.72;5013967;28;20192;-47
2022/12/01 09:49:43;;;;;;;87.10;47.65;;;;;;;3.33;100.00;102924.28;5011900;28;20705;-46
2022/12/01 09:52:16;;;;;;;84.93;46.22;;;;;;;3.38;100.00;102925.28;5016712;28;20541;-47
2022/12/01 09:54:42;;;;;;;85.93;45.78;;;;;;;3.44;100.00;102922.81;5031803;28;20271;-47
2022/12/01 09:57:33;;;;;;;87.00;48.15;;;;;;;3.48;100.00;102917.63;5012032;28;20286;-48
2022/12/01 10:00:01;;;;;;;78.85;45.25;;;;;;;3.57;100.00;102926.66;4999762;28;20217;-47
2022/12/01 10:02:56;;;;;;;78.57;45.65;;;;;;;3.54;100.00;102915.97;5011026;28;20195;-47
2022/12/01 10:05:25;;;;;;;82.50;45.63;;;;;;;3.62;100.00;102920.59;5010588;28;20188;-47
2022/12/01 10:08:14;;;;;;;88.10;46.08;;;;;;;3.68;100.00;102923.41;5013515;28;20210;-45
2022/12/01 10:10:45;;;;;;;88.97;47.28;;;;;;;3.66;100.00;102917.16;5009584;28;20185;-44
2022/12/01 10:13:19;;;;;;;87.38;47.08;;;;;;;3.65;100.00;102928.66;5015180;28;20268;-47
2022/12/01 10:15:48;;;;;;;85.45;45.03;;;;;;;3.67;100.00;102921.63;5012995;28;20206;-45
2022/12/01 10:18:16;;;;;;;80.25;45.42;;;;;;;3.65;100.00;102911.81;5019962;28;20211;-44
2022/12/01 10:20:50;;;;;;;89.88;47.60;;;;;;;3.69;100.00;102911.91;5013851;28;20207;-46
2022/12/01 10:23:47;;;;;;;82.85;46.58;;;;;;;3.77;100.00;102909.47;5014306;28;20177;-45
2022/12/01 10:26:17;;;;;;;83.85;45.08;;;;;;;3.72;100.00;102925.28;5015647;28;20293;-47
2022/12/01 10:29:03;;;;;;;83.47;45.58;;;;;;;3.65;100.00;102918.03;5015973;28;20226;-46
2022/12/01 10:31:44;;;;;;;83.20;43.85;;;;;;;3.64;100.00;102913.56;5012403;28;20246;-46
2022/12/01 10:34:25;;;;;;;80.15;44.13;;;;;;;3.63;100.00;102913.53;5012996;28;20176;-46
2022/12/01 10:36:51;;;;;;;75.57;42.95;;;;;;;3.67;100.00;102924.28;5012577;28;20216;-45
2022/12/01 10:39:38;;;;;;;81.88;43.13;;;;;;;3.69;100.00;102911.03;5016112;28;20644;-46
2022/12/01 10:42:22;;;;;;;77.78;41.63;;;;;;;3.75;100.00;102912.94;5010809;28;20212;-46
2022/12/01 10:44:49;;;;;;;82.05;42.03;;;;;;;3.69;100.00;102909.28;5017187;28;20278;-45
2022/12/01 10:47:18;;;;;;;78.93;44.10;;;;;;;3.66;100.00;102914.50;5015475;28;20208;-46
2022/12/01 10:49:44;;;;;;;80.28;42.28;;;;;;;3.70;100.00;102905.78;5011558;28;20770;-46
2022/12/01 10:52:37;;;;;;;77.32;42.20;;;;;;;3.68;100.00;102919.88;5010149;28;20238;-46
2022/12/01 10:55:25;;;;;;;81.78;43.10;;;;;;;3.76;100.00;102907.69;5011620;28;20571;-45
2022/12/01 10:57:52;;;;;;;79.57;40.83;;;;;;;3.71;100.00;102915.50;5009834;28;20623;-46
2022/12/01 11:00:29;;;;;;;79.55;41.83;;;;;;;3.62;100.00;102902.03;5014085;28;20204;-44
2022/12/01 11:02:54;;;;;;;80.00;39.83;;;;;;;3.72;100.00;102903.16;5011080;28;20187;-44
2022/12/01 11:05:31;;;;;;;83.25;42.30;;;;;;;3.81;100.00;102898.06;5021523;28;20258;-45
2022/12/01 11:07:57;;;;;;;82.38;42.55;;;;;;;3.81;100.00;102902.50;5013852;28;20198;-44
2022/12/01 11:10:29;;;;;;;80.13;42.33;;;;;;;3.89;100.00;102890.28;5018527;28;20645;-46
2022/12/01 11:13:00;;;;;;;87.25;41.35;;;;;;;3.89;100.00;102885.91;5016964;28;20176;-45
2022/12/01 11:15:33;;;;;;;86.65;41.90;;;;;;;4.01;100.00;102887.91;5010796;28;20180;-45
2022/12/01 11:18:01;;;;;;;85.05;41.75;;;;;;;4.00;100.00;102894.09;5009876;28;20944;-46
2022/12/01 11:20:31;;;;;;;82.53;41.75;;;;;;;3.89;100.00;102901.81;5010519;28;20272;-46
2022/12/01 11:23:23;;;;;;;85.47;42.47;;;;;;;3.87;100.00;102889.34;5010673;28;20176;-44
2022/12/01 11:25:54;;;;;;;84.55;42.13;;;;;;;3.81;100.00;102892.78;5016932;28;20242;-45